createdAt,value
2023-09-25T00:00:13.005Z,50.877163
2023-09-25T00:01:13.014Z,50.877136
2023-09-25T00:02:12.944Z,50.877144
2023-09-25T00:03:13.160Z,50.877129
2023-09-25T00:04:12.964Z,50.877129
2023-09-25T00:05:12.926Z,50.877163
2023-09-25T00:06:12.948Z,50.877171
2023-09-25T00:07:12.896Z,50.877174
2023-09-25T00:08:12.886Z,50.877159
2023-09-25T00:09:12.952Z,50.877174
2023-09-25T00:10:12.869Z,50.877171
2023-09-25T00:11:12.857Z,50.877174
2023-09-25T00:12:12.899Z,50.877163
2023-09-25T00:13:12.853Z,50.877178
2023-09-25T00:14:12.870Z,50.877171
2023-09-25T00:15:12.843Z,50.877163
2023-09-25T00:16:12.861Z,50.877110
2023-09-25T00:17:12.804Z,50.877151
2023-09-25T00:18:12.934Z,50.877190
2023-09-25T00:19:12.911Z,50.877174
2023-09-25T00:20:12.823Z,50.877136
2023-09-25T00:21:12.801Z,50.877129
2023-09-25T00:22:12.766Z,50.877178
2023-09-25T00:23:12.743Z,50.877159
2023-09-25T00:24:12.748Z,50.877193
2023-09-25T00:25:12.782Z,50.877132
2023-09-25T00:26:12.709Z,50.877159
2023-09-25T00:27:12.747Z,50.877136
2023-09-25T00:28:12.718Z,50.877129
2023-09-25T00:29:12.700Z,50.877167
2023-09-25T00:30:12.692Z,50.877144
2023-09-25T00:31:12.657Z,50.877167
2023-09-25T00:32:12.652Z,50.877151
2023-09-25T00:33:12.772Z,50.877140
2023-09-25T00:34:12.775Z,50.877140
2023-09-25T00:35:12.619Z,50.877140
2023-09-25T00:36:12.702Z,50.877167
2023-09-25T00:37:12.612Z,50.877148
2023-09-25T00:38:12.656Z,50.877148
2023-09-25T00:39:12.634Z,50.877171
2023-09-25T00:40:12.610Z,50.877178
2023-09-25T00:41:12.552Z,50.877186
2023-09-25T00:42:12.570Z,50.877193
2023-09-25T00:43:12.556Z,50.877190
2023-09-25T00:44:12.527Z,50.877209
2023-09-25T00:45:12.541Z,50.877216
2023-09-25T00:46:12.591Z,50.877197
2023-09-25T00:47:12.490Z,50.877209
2023-09-25T00:48:12.599Z,50.877201
2023-09-25T00:49:12.491Z,50.877197
2023-09-25T00:50:12.479Z,50.877171
2023-09-25T00:51:12.471Z,50.877163
2023-09-25T00:52:12.445Z,50.877155
2023-09-25T00:53:12.435Z,50.877136
2023-09-25T00:54:12.512Z,50.877151
2023-09-25T00:55:12.492Z,50.877102
2023-09-25T00:56:12.418Z,50.877190
2023-09-25T00:57:12.400Z,50.877144
2023-09-25T00:58:12.429Z,50.877205
2023-09-25T00:59:12.375Z,50.877182
2023-09-25T01:00:12.404Z,50.877182
2023-09-25T01:01:12.397Z,50.877182
2023-09-25T01:02:12.343Z,50.877167
2023-09-25T01:03:12.499Z,50.877193
2023-09-25T01:04:12.321Z,50.877205
2023-09-25T01:05:12.331Z,50.877182
2023-09-25T01:06:12.327Z,50.877167
2023-09-25T01:07:12.295Z,50.877197
2023-09-25T01:08:12.340Z,50.877205
2023-09-25T01:09:12.315Z,50.877178
2023-09-25T01:10:12.276Z,50.877182
2023-09-25T01:11:12.261Z,50.877190
2023-09-25T01:12:12.281Z,50.877159
2023-09-25T01:13:12.292Z,50.877171
2023-09-25T01:14:12.279Z,50.877209
2023-09-25T01:15:12.332Z,50.877220
2023-09-25T01:16:12.211Z,50.877197
2023-09-25T01:17:12.206Z,50.877205
2023-09-25T01:18:12.230Z,50.877140
2023-09-25T01:19:12.215Z,50.877171
2023-09-25T01:20:12.156Z,50.877209
2023-09-25T01:21:12.258Z,50.877193
2023-09-25T01:22:12.137Z,50.877193
2023-09-25T01:23:12.128Z,50.877186
2023-09-25T01:24:12.214Z,50.877182
2023-09-25T01:25:12.117Z,50.877171
2023-09-25T01:26:12.106Z,50.877163
2023-09-25T01:27:12.112Z,50.877140
2023-09-25T01:28:12.087Z,50.877110
2023-09-25T01:29:12.093Z,50.877144
2023-09-25T01:30:12.141Z,50.877159
2023-09-25T01:31:12.064Z,50.877224
2023-09-25T01:32:12.135Z,50.877239
2023-09-25T01:33:12.091Z,50.877228
2023-09-25T01:34:12.112Z,50.877239
2023-09-25T01:35:12.011Z,50.877232
2023-09-25T01:36:12.065Z,50.877262
2023-09-25T01:37:11.988Z,50.877312
2023-09-25T01:38:11.987Z,50.877277
2023-09-25T01:39:12.027Z,50.877243
2023-09-25T01:40:11.962Z,50.877205
2023-09-25T01:41:11.972Z,50.877148
2023-09-25T01:42:11.974Z,50.877178
2023-09-25T01:43:11.954Z,50.877178
2023-09-25T01:44:11.932Z,50.877155
2023-09-25T01:45:11.937Z,50.877117
2023-09-25T01:46:11.927Z,50.877075
2023-09-25T01:47:11.921Z,50.877117
2023-09-25T01:48:11.966Z,50.877110
2023-09-25T01:49:11.906Z,50.877186
2023-09-25T01:50:11.868Z,50.877102
2023-09-25T01:51:12.109Z,50.877148
2023-09-25T01:52:11.844Z,50.877193
2023-09-25T01:53:11.847Z,50.877201
2023-09-25T01:54:11.840Z,50.877125
2023-09-25T01:55:11.808Z,50.877079
2023-09-25T01:56:11.805Z,50.877083
2023-09-25T01:57:11.918Z,50.877201
2023-09-25T01:58:11.803Z,50.877190
2023-09-25T01:59:11.828Z,50.877197
2023-09-25T02:00:11.825Z,50.877178
2023-09-25T02:01:11.747Z,50.877197
2023-09-25T02:02:11.761Z,50.877228
2023-09-25T02:03:12.063Z,50.877174
2023-09-25T02:04:12.044Z,50.877239
2023-09-25T02:05:12.090Z,50.877274
2023-09-25T02:06:11.739Z,50.877178
2023-09-25T02:07:11.689Z,50.877159
2023-09-25T02:08:11.695Z,50.877151
2023-09-25T02:09:11.744Z,50.877132
2023-09-25T02:10:11.708Z,50.877117
2023-09-25T02:11:11.651Z,50.877102
2023-09-25T02:12:11.685Z,50.877090
2023-09-25T02:13:11.645Z,50.877132
2023-09-25T02:14:11.617Z,50.877174
2023-09-25T02:15:11.652Z,50.877159
2023-09-25T02:16:11.651Z,50.877151
2023-09-25T02:17:11.636Z,50.877151
2023-09-25T02:18:11.634Z,50.877163
2023-09-25T02:19:11.610Z,50.877155
2023-09-25T02:20:11.563Z,50.877178
2023-09-25T02:21:11.590Z,50.877163
2023-09-25T02:22:11.549Z,50.877167
2023-09-25T02:23:11.573Z,50.877148
2023-09-25T02:24:11.561Z,50.877132
2023-09-25T02:25:11.514Z,50.877113
2023-09-25T02:26:11.506Z,50.877155
2023-09-25T02:27:11.518Z,50.877193
2023-09-25T02:28:11.483Z,50.877205
2023-09-25T02:29:11.495Z,50.877201
2023-09-25T02:30:11.555Z,50.877151
2023-09-25T02:31:11.493Z,50.877140
2023-09-25T02:32:11.468Z,50.877125
2023-09-25T02:33:11.497Z,50.877144
2023-09-25T02:34:11.431Z,50.877155
2023-09-25T02:35:11.412Z,50.877132
2023-09-25T02:36:11.424Z,50.877148
2023-09-25T02:37:11.379Z,50.877132
2023-09-25T02:38:11.385Z,50.877201
2023-09-25T02:39:11.445Z,50.877186
2023-09-25T02:40:11.401Z,50.877193
2023-09-25T02:41:11.428Z,50.877151
2023-09-25T02:42:11.411Z,50.877094
2023-09-25T02:43:11.333Z,50.877205
2023-09-25T02:44:11.306Z,50.877205
2023-09-25T02:45:11.469Z,50.877186
2023-09-25T02:46:11.372Z,50.877247
2023-09-25T02:47:12.285Z,50.877232
2023-09-25T02:48:11.334Z,50.877220
2023-09-25T02:49:11.267Z,50.877220
2023-09-25T02:50:11.302Z,50.877239
2023-09-25T02:51:11.304Z,50.877243
2023-09-25T02:52:11.243Z,50.877232
2023-09-25T02:53:11.225Z,50.877243
2023-09-25T02:54:11.251Z,50.877228
2023-09-25T02:55:11.203Z,50.877266
2023-09-25T02:56:11.199Z,50.877239
2023-09-25T02:57:11.238Z,50.877140
2023-09-25T02:58:12.178Z,50.877171
2023-09-25T02:59:11.191Z,50.877224
2023-09-25T03:00:11.248Z,50.877235
2023-09-25T03:01:11.173Z,50.877136
2023-09-25T03:02:11.140Z,50.877106
2023-09-25T03:03:11.226Z,50.877113
2023-09-25T03:04:11.151Z,50.877209
2023-09-25T03:05:11.430Z,50.877155
2023-09-25T03:06:11.156Z,50.877197
2023-09-25T03:07:11.093Z,50.877216
2023-09-25T03:08:11.139Z,50.877140
2023-09-25T03:09:11.122Z,50.877148
2023-09-25T03:10:11.063Z,50.877148
2023-09-25T03:11:11.050Z,50.877151
2023-09-25T03:12:11.088Z,50.877151
2023-09-25T03:13:11.045Z,50.877148
2023-09-25T03:14:11.083Z,50.877136
2023-09-25T03:15:11.041Z,50.877132
2023-09-25T03:16:11.081Z,50.877151
2023-09-25T03:17:10.997Z,50.877163
2023-09-25T03:18:11.052Z,50.877163
2023-09-25T03:19:10.982Z,50.877171
2023-09-25T03:20:11.023Z,50.877163
2023-09-25T03:21:10.984Z,50.877159
2023-09-25T03:22:10.942Z,50.877148
2023-09-25T03:23:12.044Z,50.877148
2023-09-25T03:24:10.959Z,50.877163
2023-09-25T03:25:10.939Z,50.877159
2023-09-25T03:26:10.918Z,50.877155
2023-09-25T03:27:10.921Z,50.877151
2023-09-25T03:28:10.873Z,50.877174
2023-09-25T03:29:10.879Z,50.877178
2023-09-25T03:30:10.886Z,50.877167
2023-09-25T03:31:10.986Z,50.877159
2023-09-25T03:32:10.863Z,50.877163
2023-09-25T03:33:10.870Z,50.877163
2023-09-25T03:34:10.821Z,50.877163
2023-09-25T03:35:10.814Z,50.877159
2023-09-25T03:36:10.842Z,50.877171
2023-09-25T03:37:10.847Z,50.877174
2023-09-25T03:38:10.787Z,50.877171
2023-09-25T03:39:10.870Z,50.877155
2023-09-25T03:40:10.759Z,50.877167
2023-09-25T03:41:10.795Z,50.877163
2023-09-25T03:42:10.818Z,50.877178
2023-09-25T03:43:10.742Z,50.877171
2023-09-25T03:44:10.774Z,50.877190
2023-09-25T03:45:10.806Z,50.877201
2023-09-25T03:46:10.720Z,50.877197
2023-09-25T03:47:10.688Z,50.877186
2023-09-25T03:48:10.855Z,50.877178
2023-09-25T03:49:10.666Z,50.877197
2023-09-25T03:50:10.656Z,50.877186
2023-09-25T03:51:10.719Z,50.877171
2023-09-25T03:52:10.656Z,50.877159
2023-09-25T03:53:10.627Z,50.877174
2023-09-25T03:54:10.624Z,50.877178
2023-09-25T03:55:10.640Z,50.877167
2023-09-25T03:56:10.614Z,50.877171
2023-09-25T03:57:10.627Z,50.877174
2023-09-25T03:58:10.572Z,50.877167
2023-09-25T03:59:10.595Z,50.877163
2023-09-25T04:00:10.621Z,50.877171
2023-09-25T04:01:10.587Z,50.877190
2023-09-25T04:02:10.553Z,50.877171
2023-09-25T04:03:10.693Z,50.877163
2023-09-25T04:04:10.619Z,50.877159
2023-09-25T04:05:10.507Z,50.877171
2023-09-25T04:06:10.615Z,50.877182
2023-09-25T04:07:10.508Z,50.877190
2023-09-25T04:08:10.502Z,50.877197
2023-09-25T04:09:10.492Z,50.877182
2023-09-25T04:10:10.457Z,50.877224
2023-09-25T04:11:10.485Z,50.877190
2023-09-25T04:12:10.485Z,50.877205
2023-09-25T04:13:10.446Z,50.877159
2023-09-25T04:14:10.419Z,50.877174
2023-09-25T04:15:10.525Z,50.877201
2023-09-25T04:16:11.469Z,50.877232
2023-09-25T04:17:10.386Z,50.877186
2023-09-25T04:18:10.616Z,50.877190
2023-09-25T04:19:10.408Z,50.877232
2023-09-25T04:20:10.365Z,50.877213
2023-09-25T04:21:10.397Z,50.877213
2023-09-25T04:22:10.341Z,50.877190
2023-09-25T04:23:10.331Z,50.877178
2023-09-25T04:24:10.341Z,50.877193
2023-09-25T04:25:11.974Z,50.877193
2023-09-25T04:26:10.307Z,50.877163
2023-09-25T04:27:10.287Z,50.877178
2023-09-25T04:28:10.299Z,50.877209
2023-09-25T04:29:10.269Z,50.877190
2023-09-25T04:30:10.386Z,50.877193
2023-09-25T04:31:10.270Z,50.877167
2023-09-25T04:32:10.243Z,50.877174
2023-09-25T04:33:10.295Z,50.877171
2023-09-25T04:34:10.220Z,50.877174
2023-09-25T04:35:10.230Z,50.877171
2023-09-25T04:36:10.256Z,50.877155
2023-09-25T04:37:10.252Z,50.877174
2023-09-25T04:38:10.267Z,50.877163
2023-09-25T04:39:10.178Z,50.877178
2023-09-25T04:40:10.157Z,50.877197
2023-09-25T04:41:10.181Z,50.877174
2023-09-25T04:42:10.217Z,50.877178
2023-09-25T04:43:10.136Z,50.877178
2023-09-25T04:44:10.132Z,50.877182
2023-09-25T04:45:10.144Z,50.877174
2023-09-25T04:46:10.171Z,50.877167
2023-09-25T04:47:10.092Z,50.877190
2023-09-25T04:48:10.224Z,50.877163
2023-09-25T04:49:10.066Z,50.877220
2023-09-25T04:50:10.064Z,50.877209
2023-09-25T04:51:10.073Z,50.877201
2023-09-25T04:52:10.036Z,50.877190
2023-09-25T04:53:10.053Z,50.877205
2023-09-25T04:54:10.069Z,50.877186
2023-09-25T04:55:10.043Z,50.877201
2023-09-25T04:56:10.011Z,50.877159
2023-09-25T04:57:10.071Z,50.877163
2023-09-25T04:58:10.155Z,50.877182
2023-09-25T04:59:09.990Z,50.877186
2023-09-25T05:00:10.037Z,50.877182
2023-09-25T05:01:09.991Z,50.877144
2023-09-25T05:02:09.941Z,50.877151
2023-09-25T05:03:10.064Z,50.877163
2023-09-25T05:04:09.928Z,50.877178
2023-09-25T05:05:09.963Z,50.877171
2023-09-25T05:06:09.992Z,50.877178
2023-09-25T05:07:09.917Z,50.877159
2023-09-25T05:08:09.874Z,50.877140
2023-09-25T05:09:09.901Z,50.877155
2023-09-25T05:10:09.911Z,50.877171
2023-09-25T05:11:09.864Z,50.877174
2023-09-25T05:12:09.905Z,50.877190
2023-09-25T05:13:09.854Z,50.877232
2023-09-25T05:14:09.843Z,50.877251
2023-09-25T05:15:09.992Z,50.877235
2023-09-25T05:16:09.868Z,50.877205
2023-09-25T05:17:09.812Z,50.877178
2023-09-25T05:18:09.897Z,50.877178
2023-09-25T05:19:09.796Z,50.877247
2023-09-25T05:20:09.796Z,50.877205
2023-09-25T05:21:09.824Z,50.877224
2023-09-25T05:22:09.746Z,50.877213
2023-09-25T05:23:09.739Z,50.877216
2023-09-25T05:24:09.920Z,50.877243
2023-09-25T05:25:09.714Z,50.877205
2023-09-25T05:26:09.704Z,50.877224
2023-09-25T05:27:09.689Z,50.877239
2023-09-25T05:28:09.719Z,50.877262
2023-09-25T05:29:09.681Z,50.877243
2023-09-25T05:30:09.671Z,50.877224
2023-09-25T05:31:09.846Z,50.877239
2023-09-25T05:32:09.643Z,50.877220
2023-09-25T05:33:09.672Z,50.877243
2023-09-25T05:34:09.619Z,50.877239
2023-09-25T05:35:09.607Z,50.877270
2023-09-25T05:36:09.599Z,50.877235
2023-09-25T05:37:09.648Z,50.877220
2023-09-25T05:38:09.775Z,50.877220
2023-09-25T05:39:09.602Z,50.877190
2023-09-25T05:40:09.574Z,50.877209
2023-09-25T05:41:09.575Z,50.877190
2023-09-25T05:42:09.545Z,50.877190
2023-09-25T05:43:09.548Z,50.877178
2023-09-25T05:44:09.521Z,50.877186
2023-09-25T05:45:09.538Z,50.877220
2023-09-25T05:46:09.600Z,50.877178
2023-09-25T05:47:09.488Z,50.877251
2023-09-25T05:48:09.548Z,50.877266
2023-09-25T05:49:09.531Z,50.877254
2023-09-25T05:50:09.467Z,50.877258
2023-09-25T05:51:09.451Z,50.877266
2023-09-25T05:52:09.450Z,50.877262
2023-09-25T05:53:09.465Z,50.877213
2023-09-25T05:54:09.427Z,50.877220
2023-09-25T05:55:09.434Z,50.877193
2023-09-25T05:56:09.418Z,50.877193
2023-09-25T05:57:09.405Z,50.877213
2023-09-25T05:58:09.393Z,50.877224
2023-09-25T05:59:09.451Z,50.877205
2023-09-25T06:00:09.386Z,50.877182
2023-09-25T06:01:09.477Z,50.877190
2023-09-25T06:02:09.349Z,50.877262
2023-09-25T06:03:09.379Z,50.877216
2023-09-25T06:04:09.556Z,50.877201
2023-09-25T06:05:09.333Z,50.877243
2023-09-25T06:06:09.330Z,50.877235
2023-09-25T06:07:09.302Z,50.877243
2023-09-25T06:08:09.292Z,50.877247
2023-09-25T06:09:09.369Z,50.877232
2023-09-25T06:10:09.333Z,50.877228
2023-09-25T06:11:09.272Z,50.877201
2023-09-25T06:12:09.258Z,50.877262
2023-09-25T06:13:09.243Z,50.877197
2023-09-25T06:14:09.221Z,50.877228
2023-09-25T06:15:09.219Z,50.877270
2023-09-25T06:16:09.200Z,50.877254
2023-09-25T06:17:09.246Z,50.877224
2023-09-25T06:18:09.223Z,50.877224
2023-09-25T06:19:09.191Z,50.877254
2023-09-25T06:20:09.210Z,50.877258
2023-09-25T06:21:09.173Z,50.877277
2023-09-25T06:22:09.250Z,50.877254
2023-09-25T06:23:09.153Z,50.877209
2023-09-25T06:24:09.149Z,50.877235
2023-09-25T06:25:09.132Z,50.877262
2023-09-25T06:26:09.100Z,50.877254
2023-09-25T06:27:09.099Z,50.877235
2023-09-25T06:28:09.100Z,50.877251
2023-09-25T06:29:09.072Z,50.877209
2023-09-25T06:30:09.063Z,50.877232
2023-09-25T06:31:09.096Z,50.877243
2023-09-25T06:32:09.091Z,50.877209
2023-09-25T06:33:09.113Z,50.877213
2023-09-25T06:34:09.109Z,50.877228
2023-09-25T06:35:09.214Z,50.877232
2023-09-25T06:36:09.006Z,50.877220
2023-09-25T06:37:08.981Z,50.877220
2023-09-25T06:38:09.052Z,50.877197
2023-09-25T06:39:08.978Z,50.877197
2023-09-25T06:40:09.000Z,50.877209
2023-09-25T06:41:08.958Z,50.877201
2023-09-25T06:42:08.945Z,50.877201
2023-09-25T06:43:08.920Z,50.877197
2023-09-25T06:44:08.977Z,50.877193
2023-09-25T06:45:08.961Z,50.877190
2023-09-25T06:46:08.912Z,50.877201
2023-09-25T06:47:08.890Z,50.877216
2023-09-25T06:48:08.911Z,50.877209
2023-09-25T06:49:08.856Z,50.877209
2023-09-25T06:50:08.871Z,50.877174
2023-09-25T06:51:08.865Z,50.877182
2023-09-25T06:52:08.838Z,50.877125
2023-09-25T06:53:08.864Z,50.876984
2023-09-25T06:54:08.817Z,50.877083
2023-09-25T06:55:08.810Z,50.877106
2023-09-25T06:56:08.800Z,50.877190
2023-09-25T06:57:08.791Z,50.877254
2023-09-25T06:58:09.027Z,50.877174
2023-09-25T06:59:08.768Z,50.877209
2023-09-25T07:00:08.762Z,50.877163
2023-09-25T07:01:08.795Z,50.877151
2023-09-25T07:02:08.759Z,50.877125
2023-09-25T07:03:08.763Z,50.877132
2023-09-25T07:04:08.853Z,50.877136
2023-09-25T07:05:08.863Z,50.877155
2023-09-25T07:06:09.041Z,50.877155
2023-09-25T07:07:08.724Z,50.877090
2023-09-25T07:08:08.737Z,50.877136
2023-09-25T07:09:08.693Z,50.877129
2023-09-25T07:10:08.700Z,50.877193
2023-09-25T07:11:08.649Z,50.877220
2023-09-25T07:12:08.658Z,50.877201
2023-09-25T07:13:08.698Z,50.877102
2023-09-25T07:14:08.635Z,50.877151
2023-09-25T07:15:08.618Z,50.877186
2023-09-25T07:16:08.683Z,50.877186
2023-09-25T07:17:08.667Z,50.877151
2023-09-25T07:18:08.658Z,50.877151
2023-09-25T07:19:08.583Z,50.877151
2023-09-25T07:20:08.590Z,50.877144
2023-09-25T07:21:08.556Z,50.877083
2023-09-25T07:22:08.583Z,50.877117
2023-09-25T07:23:08.536Z,50.877117
2023-09-25T07:24:08.547Z,50.877113
2023-09-25T07:25:08.530Z,50.877106
2023-09-25T07:26:08.699Z,50.877151
2023-09-25T07:27:08.485Z,50.877148
2023-09-25T07:28:08.500Z,50.877132
2023-09-25T07:29:18.652Z,50.877148
2023-09-25T07:30:10.458Z,50.877102
2023-09-25T07:31:08.557Z,50.877075
2023-09-25T07:32:08.477Z,50.877056
2023-09-25T07:33:08.502Z,50.877060
2023-09-25T07:34:08.440Z,50.877045
2023-09-25T07:35:08.411Z,50.877113
2023-09-25T07:36:08.408Z,50.877094
2023-09-25T07:37:08.389Z,50.877140
2023-09-25T07:38:08.409Z,50.877151
2023-09-25T07:39:08.401Z,50.877129
2023-09-25T07:40:08.376Z,50.877125
2023-09-25T07:41:08.361Z,50.877121
2023-09-25T07:42:08.338Z,50.877140
2023-09-25T07:43:08.432Z,50.877144
2023-09-25T07:44:08.356Z,50.877140
2023-09-25T07:45:08.405Z,50.877163
2023-09-25T07:46:08.433Z,50.877140
2023-09-25T07:47:08.731Z,50.877132
2023-09-25T07:48:08.378Z,50.877148
2023-09-25T07:49:08.319Z,50.877110
2023-09-25T07:50:08.276Z,50.877106
2023-09-25T07:51:08.303Z,50.877140
2023-09-25T07:52:08.265Z,50.877125
2023-09-25T07:53:09.251Z,50.877132
2023-09-25T07:54:08.227Z,50.877140
2023-09-25T07:55:09.720Z,50.877144
2023-09-25T07:56:09.252Z,50.877121
2023-09-25T07:57:08.200Z,50.877136
2023-09-25T07:58:08.391Z,50.877129
2023-09-25T07:59:08.180Z,50.877129
2023-09-25T08:00:08.212Z,50.877136
2023-09-25T08:01:08.225Z,50.877129
2023-09-25T08:02:08.220Z,50.877129
2023-09-25T08:03:08.284Z,50.877148
2023-09-25T08:04:08.197Z,50.877148
2023-09-25T08:05:08.141Z,50.877129
2023-09-25T08:06:08.139Z,50.877106
2023-09-25T08:07:08.179Z,50.877102
2023-09-25T08:08:08.097Z,50.877121
2023-09-25T08:09:08.112Z,50.877121
2023-09-25T08:10:08.117Z,50.877113
2023-09-25T08:11:08.087Z,50.877121
2023-09-25T08:12:08.079Z,50.877136
2023-09-25T08:13:09.056Z,50.877121
2023-09-25T08:14:08.109Z,50.877117
2023-09-25T08:15:08.034Z,50.877144
2023-09-25T08:16:08.127Z,50.877148
2023-09-25T08:17:08.017Z,50.877125
2023-09-25T08:18:08.058Z,50.877129
2023-09-25T08:19:08.013Z,50.877144
2023-09-25T08:20:07.987Z,50.877163
2023-09-25T08:21:07.986Z,50.877155
2023-09-25T08:22:07.974Z,50.877163
2023-09-25T08:23:07.971Z,50.877167
2023-09-25T08:24:07.995Z,50.877155
2023-09-25T08:25:07.957Z,50.877148
2023-09-25T08:26:07.936Z,50.877148
2023-09-25T08:27:07.927Z,50.877174
2023-09-25T08:28:07.923Z,50.877140
2023-09-25T08:29:08.923Z,50.877159
2023-09-25T08:30:07.909Z,50.877155
2023-09-25T08:31:07.912Z,50.877140
2023-09-25T08:32:07.920Z,50.877151
2023-09-25T08:33:07.907Z,50.877151
2023-09-25T08:34:07.844Z,50.877117
2023-09-25T08:35:07.856Z,50.877148
2023-09-25T08:36:07.840Z,50.877148
2023-09-25T08:37:07.854Z,50.877167
2023-09-25T08:38:07.803Z,50.877171
2023-09-25T08:39:07.808Z,50.877148
2023-09-25T08:40:07.811Z,50.877140
2023-09-25T08:41:07.796Z,50.877159
2023-09-25T08:42:07.760Z,50.877186
2023-09-25T08:43:19.452Z,50.877193
2023-09-25T08:44:09.747Z,50.877209
2023-09-25T08:45:07.731Z,50.877178
2023-09-25T08:46:07.882Z,50.877159
2023-09-25T08:47:07.738Z,50.877171
2023-09-25T08:48:07.760Z,50.877190
2023-09-25T08:49:07.765Z,50.877151
2023-09-25T08:50:07.696Z,50.877159
2023-09-25T08:51:07.755Z,50.877151
2023-09-25T08:52:07.750Z,50.877182
2023-09-25T08:53:07.980Z,50.877110
2023-09-25T08:54:07.691Z,50.877140
2023-09-25T08:55:07.707Z,50.877144
2023-09-25T08:56:07.668Z,50.877174
2023-09-25T08:57:07.623Z,50.877209
2023-09-25T08:58:07.611Z,50.877132
2023-09-25T08:59:07.605Z,50.877148
2023-09-25T09:00:07.594Z,50.877125
2023-09-25T09:01:07.763Z,50.877155
2023-09-25T09:02:07.669Z,50.877167
2023-09-25T09:03:07.652Z,50.877174
2023-09-25T09:04:07.642Z,50.877159
2023-09-25T09:05:07.581Z,50.877129
2023-09-25T09:06:07.555Z,50.877178
2023-09-25T09:07:07.525Z,50.877178
2023-09-25T09:08:07.541Z,50.877190
2023-09-25T09:09:07.560Z,50.877178
2023-09-25T09:10:07.542Z,50.877193
2023-09-25T09:11:07.519Z,50.877197
2023-09-25T09:12:07.472Z,50.877174
2023-09-25T09:13:07.505Z,50.877178
2023-09-25T09:14:07.467Z,50.877201
2023-09-25T09:15:07.452Z,50.877163
2023-09-25T09:16:07.527Z,50.877178
2023-09-25T09:17:07.442Z,50.877171
2023-09-25T09:18:07.458Z,50.877148
2023-09-25T09:19:07.531Z,50.877151
2023-09-25T09:20:07.416Z,50.877178
2023-09-25T09:21:07.382Z,50.877205
2023-09-25T09:22:07.369Z,50.877159
2023-09-25T09:23:07.672Z,50.877174
2023-09-25T09:24:07.333Z,50.877129
2023-09-25T09:25:09.193Z,50.877193
2023-09-25T09:26:08.505Z,50.877163
2023-09-25T09:27:07.330Z,50.877193
2023-09-25T09:28:07.329Z,50.877190
2023-09-25T09:29:07.326Z,50.877197
2023-09-25T09:30:07.313Z,50.877209
2023-09-25T09:31:07.288Z,50.877258
2023-09-25T09:32:07.291Z,50.877266
2023-09-25T09:33:07.284Z,50.877251
2023-09-25T09:34:07.296Z,50.877235
2023-09-25T09:35:07.231Z,50.877228
2023-09-25T09:36:07.247Z,50.877239
2023-09-25T09:37:07.293Z,50.877193
2023-09-25T09:38:07.302Z,50.877209
2023-09-25T09:39:08.208Z,50.877232
2023-09-25T09:40:07.245Z,50.877224
2023-09-25T09:41:07.184Z,50.877205
2023-09-25T09:42:07.187Z,50.877209
2023-09-25T09:43:07.249Z,50.877270
2023-09-25T09:44:07.161Z,50.877220
2023-09-25T09:45:07.161Z,50.877209
2023-09-25T09:46:07.224Z,50.877224
2023-09-25T09:47:07.172Z,50.877232
2023-09-25T09:48:07.125Z,50.877228
2023-09-25T09:49:07.132Z,50.877209
2023-09-25T09:50:07.234Z,50.877220
2023-09-25T09:51:07.092Z,50.877209
2023-09-25T09:52:07.126Z,50.877205
2023-09-25T09:53:07.082Z,50.877182
2023-09-25T09:54:07.068Z,50.877193
2023-09-25T09:55:07.053Z,50.877174
2023-09-25T09:56:07.031Z,50.877190
2023-09-25T09:57:07.032Z,50.877190
2023-09-25T09:58:07.031Z,50.877193
2023-09-25T09:59:07.001Z,50.877121
2023-09-25T10:00:07.030Z,50.877197
2023-09-25T10:01:07.107Z,50.877171
2023-09-25T10:02:07.152Z,50.877201
2023-09-25T10:03:07.174Z,50.877167
2023-09-25T10:04:07.038Z,50.877163
2023-09-25T10:05:07.055Z,50.877178
2023-09-25T10:06:06.944Z,50.877151
2023-09-25T10:07:06.932Z,50.877163
2023-09-25T10:08:06.978Z,50.877144
2023-09-25T10:09:06.941Z,50.877155
2023-09-25T10:10:06.954Z,50.877163
2023-09-25T10:11:06.903Z,50.877209
2023-09-25T10:12:06.873Z,50.877190
2023-09-25T10:13:06.876Z,50.877178
2023-09-25T10:14:06.853Z,50.877159
2023-09-25T10:15:06.879Z,50.877190
2023-09-25T10:16:06.914Z,50.877178
2023-09-25T10:17:06.865Z,50.877171
2023-09-25T10:18:06.890Z,50.877167
2023-09-25T10:19:06.888Z,50.877171
2023-09-25T10:20:06.803Z,50.877209
2023-09-25T10:21:06.793Z,50.877186
2023-09-25T10:22:06.796Z,50.877182
2023-09-25T10:23:06.801Z,50.877205
2023-09-25T10:24:06.779Z,50.877220
2023-09-25T10:25:06.768Z,50.877213
2023-09-25T10:26:06.749Z,50.877193
2023-09-25T10:27:06.731Z,50.877216
2023-09-25T10:28:06.715Z,50.877197
2023-09-25T10:29:06.701Z,50.877213
2023-09-25T10:30:06.717Z,50.877228
2023-09-25T10:31:06.686Z,50.877247
2023-09-25T10:32:06.670Z,50.877235
2023-09-25T10:33:06.768Z,50.877228
2023-09-25T10:34:06.720Z,50.877205
2023-09-25T10:35:06.728Z,50.877174
2023-09-25T10:36:06.656Z,50.877243
2023-09-25T10:37:06.701Z,50.877220
2023-09-25T10:38:19.061Z,50.877174
2023-09-25T10:39:08.624Z,50.877224
2023-09-25T10:40:06.685Z,50.877266
2023-09-25T10:41:06.613Z,50.877228
2023-09-25T10:42:06.572Z,50.877228
2023-09-25T10:43:06.564Z,50.877228
2023-09-25T10:44:06.653Z,50.877239
2023-09-25T10:45:06.581Z,50.877239
2023-09-25T10:46:06.677Z,50.877239
2023-09-25T10:47:06.511Z,50.877239
2023-09-25T10:48:06.557Z,50.877262
2023-09-25T10:49:06.587Z,50.877262
2023-09-25T10:50:06.505Z,50.877262
2023-09-25T10:51:06.480Z,50.877213
2023-09-25T10:52:06.529Z,50.877159
2023-09-25T10:53:06.488Z,50.876965
2023-09-25T10:54:06.468Z,50.876881
2023-09-25T10:55:06.477Z,50.876938
2023-09-25T10:56:06.467Z,50.877083
2023-09-25T10:57:06.444Z,50.877140
2023-09-25T10:58:06.490Z,50.877308
2023-09-25T10:59:06.416Z,50.877228
2023-09-25T11:00:06.433Z,50.877216
2023-09-25T11:01:09.356Z,50.877209
2023-09-25T11:02:07.380Z,50.877216
2023-09-25T11:03:06.450Z,50.877201
2023-09-25T11:04:06.567Z,50.877201
2023-09-25T11:05:06.365Z,50.877190
2023-09-25T11:06:06.329Z,50.877182
2023-09-25T11:07:06.345Z,50.877171
2023-09-25T11:08:06.393Z,50.877182
2023-09-25T11:09:06.336Z,50.877186
2023-09-25T11:10:06.365Z,50.877186
2023-09-25T11:11:06.313Z,50.877190
2023-09-25T11:12:06.347Z,50.877182
2023-09-25T11:13:06.263Z,50.877178
2023-09-25T11:14:06.269Z,50.877182
2023-09-25T11:15:06.302Z,50.877182
2023-09-25T11:16:06.298Z,50.877178
2023-09-25T11:17:06.224Z,50.877171
2023-09-25T11:18:06.229Z,50.877174
2023-09-25T11:19:06.221Z,50.877182
2023-09-25T11:20:06.212Z,50.877197
2023-09-25T11:21:06.173Z,50.877186
2023-09-25T11:22:06.267Z,50.877193
2023-09-25T11:23:19.084Z,50.877193
2023-09-25T11:24:08.144Z,50.877193